sensor_id;sensor_type;location;lat;lon;timestamp;temperature;humidity
67868;SHT31;54672;46.096;14.470;2023-05-10T00:00:50;7.93;89.57
67868;SHT31;54672;46.096;14.470;2023-05-10T00:03:16;7.90;89.79
67868;SHT31;54672;46.096;14.470;2023-05-10T00:05:42;7.87;89.78
67868;SHT31;54672;46.096;14.470;2023-05-10T00:08:07;7.91;89.76
67868;SHT31;54672;46.096;14.470;2023-05-10T00:10:33;7.99;89.42
67868;SHT31;54672;46.096;14.470;2023-05-10T00:12:58;8.05;89.41
67868;SHT31;54672;46.096;14.470;2023-05-10T00:15:23;7.95;89.83
67868;SHT31;54672;46.096;14.470;2023-05-10T00:17:49;8.02;89.55
67868;SHT31;54672;46.096;14.470;2023-05-10T00:20:14;8.11;89.47
67868;SHT31;54672;46.096;14.470;2023-05-10T00:22:40;8.12;89.25
67868;SHT31;54672;46.096;14.470;2023-05-10T00:25:06;8.18;89.37
67868;SHT31;54672;46.096;14.470;2023-05-10T00:27:31;8.21;89.11
67868;SHT31;54672;46.096;14.470;2023-05-10T00:29:57;8.20;89.08
67868;SHT31;54672;46.096;14.470;2023-05-10T00:32:22;8.16;89.10
67868;SHT31;54672;46.096;14.470;2023-05-10T00:34:47;8.12;89.21
67868;SHT31;54672;46.096;14.470;2023-05-10T00:37:13;8.18;89.40
67868;SHT31;54672;46.096;14.470;2023-05-10T00:39:38;8.18;89.46
67868;SHT31;54672;46.096;14.470;2023-05-10T00:42:04;8.21;89.24
67868;SHT31;54672;46.096;14.470;2023-05-10T00:44:29;8.20;89.28
67868;SHT31;54672;46.096;14.470;2023-05-10T00:46:56;8.16;89.26
67868;SHT31;54672;46.096;14.470;2023-05-10T00:49:22;8.12;89.40
67868;SHT31;54672;46.096;14.470;2023-05-10T00:51:48;8.04;89.70
67868;SHT31;54672;46.096;14.470;2023-05-10T00:54:14;7.98;89.87
67868;SHT31;54672;46.096;14.470;2023-05-10T00:56:40;7.91;90.02
67868;SHT31;54672;46.096;14.470;2023-05-10T00:59:07;7.94;90.01
67868;SHT31;54672;46.096;14.470;2023-05-10T01:01:33;7.87;90.20
67868;SHT31;54672;46.096;14.470;2023-05-10T01:03:58;7.78;90.38
67868;SHT31;54672;46.096;14.470;2023-05-10T01:06:24;7.66;91.08
67868;SHT31;54672;46.096;14.470;2023-05-10T01:08:50;7.53;91.67
67868;SHT31;54672;46.096;14.470;2023-05-10T01:11:15;7.47;91.83
67868;SHT31;54672;46.096;14.470;2023-05-10T01:13:42;7.59;91.65
67868;SHT31;54672;46.096;14.470;2023-05-10T01:16:08;7.69;91.49
67868;SHT31;54672;46.096;14.470;2023-05-10T01:18:36;7.78;91.34
67868;SHT31;54672;46.096;14.470;2023-05-10T01:24:03;7.80;91.00
67868;SHT31;54672;46.096;14.470;2023-05-10T01:27:07;7.69;91.50
67868;SHT31;54672;46.096;14.470;2023-05-10T01:37:29;7.60;92.00
67868;SHT31;54672;46.096;14.470;2023-05-10T01:42:46;7.70;91.64
67868;SHT31;54672;46.096;14.470;2023-05-10T01:45:47;7.81;91.61
67868;SHT31;54672;46.096;14.470;2023-05-10T01:48:16;7.84;91.20
67868;SHT31;54672;46.096;14.470;2023-05-10T01:50:45;7.88;91.23
67868;SHT31;54672;46.096;14.470;2023-05-10T01:53:12;7.97;91.17
67868;SHT31;54672;46.096;14.470;2023-05-10T01:55:47;8.02;91.02
67868;SHT31;54672;46.096;14.470;2023-05-10T01:58:25;8.02;90.85
67868;SHT31;54672;46.096;14.470;2023-05-10T02:00:52;8.08;90.70
67868;SHT31;54672;46.096;14.470;2023-05-10T02:03:22;8.11;90.63
67868;SHT31;54672;46.096;14.470;2023-05-10T02:05:49;8.11;90.67
67868;SHT31;54672;46.096;14.470;2023-05-10T02:08:17;8.09;90.85
67868;SHT31;54672;46.096;14.470;2023-05-10T02:10:45;8.02;90.99
67868;SHT31;54672;46.096;14.470;2023-05-10T02:13:11;8.01;91.05
67868;SHT31;54672;46.096;14.470;2023-05-10T02:15:38;8.01;91.01
67868;SHT31;54672;46.096;14.470;2023-05-10T02:18:06;7.97;90.93
67868;SHT31;54672;46.096;14.470;2023-05-10T02:20:32;8.01;90.91
67868;SHT31;54672;46.096;14.470;2023-05-10T02:22:59;7.97;91.06
67868;SHT31;54672;46.096;14.470;2023-05-10T02:25:25;8.07;90.86
67868;SHT31;54672;46.096;14.470;2023-05-10T02:27:54;8.09;90.76
67868;SHT31;54672;46.096;14.470;2023-05-10T02:30:21;8.05;90.76
67868;SHT31;54672;46.096;14.470;2023-05-10T02:32:48;8.01;91.10
67868;SHT31;54672;46.096;14.470;2023-05-10T02:35:14;7.88;91.52
67868;SHT31;54672;46.096;14.470;2023-05-10T02:37:41;7.88;91.45
67868;SHT31;54672;46.096;14.470;2023-05-10T02:40:07;7.80;91.44
67868;SHT31;54672;46.096;14.470;2023-05-10T02:42:36;7.71;91.56
67868;SHT31;54672;46.096;14.470;2023-05-10T02:45:07;7.70;91.64
67868;SHT31;54672;46.096;14.470;2023-05-10T02:47:34;7.69;91.90
67868;SHT31;54672;46.096;14.470;2023-05-10T02:49:59;7.67;92.11
67868;SHT31;54672;46.096;14.470;2023-05-10T02:52:32;7.66;91.96
67868;SHT31;54672;46.096;14.470;2023-05-10T02:55:02;7.69;91.99
67868;SHT31;54672;46.096;14.470;2023-05-10T02:57:33;7.70;92.09
67868;SHT31;54672;46.096;14.470;2023-05-10T02:59:59;7.69;92.18
67868;SHT31;54672;46.096;14.470;2023-05-10T03:02:26;7.64;92.59
67868;SHT31;54672;46.096;14.470;2023-05-10T03:04:51;7.52;92.86
67868;SHT31;54672;46.096;14.470;2023-05-10T03:07:17;7.52;92.89
67868;SHT31;54672;46.096;14.470;2023-05-10T03:09:44;7.46;92.96
67868;SHT31;54672;46.096;14.470;2023-05-10T03:15:00;7.37;93.50
67868;SHT31;54672;46.096;14.470;2023-05-10T03:17:47;7.37;93.59
67868;SHT31;54672;46.096;14.470;2023-05-10T03:20:22;7.56;93.19
67868;SHT31;54672;46.096;14.470;2023-05-10T03:22:53;7.54;93.26
67868;SHT31;54672;46.096;14.470;2023-05-10T03:25:21;7.54;93.26
67868;SHT31;54672;46.096;14.470;2023-05-10T03:27:47;7.52;93.14
67868;SHT31;54672;46.096;14.470;2023-05-10T03:30:13;7.54;93.18
67868;SHT31;54672;46.096;14.470;2023-05-10T03:32:39;7.64;92.91
67868;SHT31;54672;46.096;14.470;2023-05-10T03:35:12;7.74;92.82
67868;SHT31;54672;46.096;14.470;2023-05-10T03:37:38;7.91;92.68
67868;SHT31;54672;46.096;14.470;2023-05-10T03:40:04;8.07;91.92
67868;SHT31;54672;46.096;14.470;2023-05-10T03:42:30;8.21;91.61
67868;SHT31;54672;46.096;14.470;2023-05-10T03:44:56;8.32;91.23
67868;SHT31;54672;46.096;14.470;2023-05-10T03:47:21;8.55;90.30
67868;SHT31;54672;46.096;14.470;2023-05-10T03:49:46;8.70;89.61
67868;SHT31;54672;46.096;14.470;2023-05-10T03:52:12;8.84;89.26
67868;SHT31;54672;46.096;14.470;2023-05-10T03:54:37;8.88;88.88
67868;SHT31;54672;46.096;14.470;2023-05-10T03:57:03;8.56;90.60
67868;SHT31;54672;46.096;14.470;2023-05-10T03:59:29;8.67;90.58
67868;SHT31;54672;46.096;14.470;2023-05-10T04:01:54;8.77;90.09
67868;SHT31;54672;46.096;14.470;2023-05-10T04:04:20;8.77;89.89
67868;SHT31;54672;46.096;14.470;2023-05-10T04:06:46;8.76;89.86
67868;SHT31;54672;46.096;14.470;2023-05-10T04:09:12;8.70;89.95
67868;SHT31;54672;46.096;14.470;2023-05-10T04:11:37;8.69;90.17
67868;SHT31;54672;46.096;14.470;2023-05-10T04:14:02;8.57;90.50
67868;SHT31;54672;46.096;14.470;2023-05-10T04:16:28;8.53;91.00
67868;SHT31;54672;46.096;14.470;2023-05-10T04:18:53;8.53;90.73
67868;SHT31;54672;46.096;14.470;2023-05-10T04:21:19;8.53;90.98
67868;SHT31;54672;46.096;14.470;2023-05-10T04:23:44;8.44;91.36
67868;SHT31;54672;46.096;14.470;2023-05-10T04:26:10;8.39;91.02
67868;SHT31;54672;46.096;14.470;2023-05-10T04:28:35;8.32;90.75
67868;SHT31;54672;46.096;14.470;2023-05-10T04:31:07;8.35;91.42
67868;SHT31;54672;46.096;14.470;2023-05-10T04:33:33;8.29;91.91
67868;SHT31;54672;46.096;14.470;2023-05-10T04:35:59;8.25;91.83
67868;SHT31;54672;46.096;14.470;2023-05-10T04:38:25;8.32;91.32
67868;SHT31;54672;46.096;14.470;2023-05-10T04:40:50;8.46;91.72
67868;SHT31;54672;46.096;14.470;2023-05-10T04:43:16;8.45;90.87
67868;SHT31;54672;46.096;14.470;2023-05-10T04:45:41;8.45;90.99
67868;SHT31;54672;46.096;14.470;2023-05-10T04:48:06;8.39;90.71
67868;SHT31;54672;46.096;14.470;2023-05-10T04:50:32;8.41;90.92
67868;SHT31;54672;46.096;14.470;2023-05-10T04:52:58;8.41;90.90
67868;SHT31;54672;46.096;14.470;2023-05-10T04:55:23;8.57;90.95
67868;SHT31;54672;46.096;14.470;2023-05-10T04:57:49;8.84;90.21
67868;SHT31;54672;46.096;14.470;2023-05-10T05:00:15;9.00;89.30
67868;SHT31;54672;46.096;14.470;2023-05-10T05:02:44;8.88;89.92
67868;SHT31;54672;46.096;14.470;2023-05-10T05:05:13;8.91;90.35
67868;SHT31;54672;46.096;14.470;2023-05-10T05:07:38;9.17;89.42
67868;SHT31;54672;46.096;14.470;2023-05-10T05:10:07;9.32;87.74
67868;SHT31;54672;46.096;14.470;2023-05-10T05:12:33;9.51;87.29
67868;SHT31;54672;46.096;14.470;2023-05-10T05:14:59;9.71;86.48
67868;SHT31;54672;46.096;14.470;2023-05-10T05:17:25;9.72;86.02
67868;SHT31;54672;46.096;14.470;2023-05-10T05:19:50;9.48;86.23
67868;SHT31;54672;46.096;14.470;2023-05-10T05:22:15;9.20;87.12
67868;SHT31;54672;46.096;14.470;2023-05-10T05:24:41;9.25;87.83
67868;SHT31;54672;46.096;14.470;2023-05-10T05:27:06;9.25;87.22
67868;SHT31;54672;46.096;14.470;2023-05-10T05:29:32;9.37;86.66
67868;SHT31;54672;46.096;14.470;2023-05-10T05:31:58;9.59;86.15
67868;SHT31;54672;46.096;14.470;2023-05-10T05:34:23;9.76;86.33
67868;SHT31;54672;46.096;14.470;2023-05-10T05:36:49;9.89;86.35
67868;SHT31;54672;46.096;14.470;2023-05-10T05:39:14;9.68;85.92
67868;SHT31;54672;46.096;14.470;2023-05-10T05:41:40;9.62;87.46
67868;SHT31;54672;46.096;14.470;2023-05-10T05:44:05;9.74;87.67
67868;SHT31;54672;46.096;14.470;2023-05-10T05:46:31;9.75;87.03
67868;SHT31;54672;46.096;14.470;2023-05-10T05:48:56;9.71;87.97
67868;SHT31;54672;46.096;14.470;2023-05-10T05:51:21;9.65;87.98
67868;SHT31;54672;46.096;14.470;2023-05-10T05:53:47;9.75;88.28
67868;SHT31;54672;46.096;14.470;2023-05-10T05:56:12;9.74;87.33
67868;SHT31;54672;46.096;14.470;2023-05-10T05:58:37;9.72;87.34
67868;SHT31;54672;46.096;14.470;2023-05-10T06:01:03;9.69;88.10
67868;SHT31;54672;46.096;14.470;2023-05-10T06:03:28;9.79;88.10
67868;SHT31;54672;46.096;14.470;2023-05-10T06:05:54;9.81;87.96
67868;SHT31;54672;46.096;14.470;2023-05-10T06:08:19;9.76;87.98
67868;SHT31;54672;46.096;14.470;2023-05-10T06:10:45;9.87;88.43
67868;SHT31;54672;46.096;14.470;2023-05-10T06:13:10;10.02;88.02
67868;SHT31;54672;46.096;14.470;2023-05-10T06:15:36;9.95;87.56
67868;SHT31;54672;46.096;14.470;2023-05-10T06:18:01;10.06;87.48
67868;SHT31;54672;46.096;14.470;2023-05-10T06:20:27;9.89;87.23
67868;SHT31;54672;46.096;14.470;2023-05-10T06:22:52;10.05;86.90
67868;SHT31;54672;46.096;14.470;2023-05-10T06:25:17;10.14;85.27
67868;SHT31;54672;46.096;14.470;2023-05-10T06:27:43;10.34;84.32
67868;SHT31;54672;46.096;14.470;2023-05-10T06:30:09;10.38;83.21
67868;SHT31;54672;46.096;14.470;2023-05-10T06:32:35;10.43;83.34
67868;SHT31;54672;46.096;14.470;2023-05-10T06:35:00;10.41;83.35
67868;SHT31;54672;46.096;14.470;2023-05-10T06:37:26;10.48;82.94
67868;SHT31;54672;46.096;14.470;2023-05-10T06:39:51;10.53;82.64
67868;SHT31;54672;46.096;14.470;2023-05-10T06:42:17;10.60;82.24
67868;SHT31;54672;46.096;14.470;2023-05-10T06:44:42;10.94;82.38
67868;SHT31;54672;46.096;14.470;2023-05-10T06:47:08;11.15;80.45
67868;SHT31;54672;46.096;14.470;2023-05-10T06:49:34;11.18;79.84
67868;SHT31;54672;46.096;14.470;2023-05-10T06:51:59;11.27;80.44
67868;SHT31;54672;46.096;14.470;2023-05-10T06:54:24;11.74;77.77
67868;SHT31;54672;46.096;14.470;2023-05-10T06:56:50;11.88;77.17
67868;SHT31;54672;46.096;14.470;2023-05-10T06:59:15;11.98;76.58
67868;SHT31;54672;46.096;14.470;2023-05-10T07:01:42;11.99;76.98
67868;SHT31;54672;46.096;14.470;2023-05-10T07:04:07;11.93;77.26
67868;SHT31;54672;46.096;14.470;2023-05-10T07:06:33;12.02;77.66
67868;SHT31;54672;46.096;14.470;2023-05-10T07:08:59;11.88;77.63
67868;SHT31;54672;46.096;14.470;2023-05-10T07:11:24;12.13;77.04
67868;SHT31;54672;46.096;14.470;2023-05-10T07:13:49;12.34;76.61
67868;SHT31;54672;46.096;14.470;2023-05-10T07:16:15;12.45;76.26
67868;SHT31;54672;46.096;14.470;2023-05-10T07:18:40;12.63;75.86
67868;SHT31;54672;46.096;14.470;2023-05-10T07:21:05;13.23;73.81
67868;SHT31;54672;46.096;14.470;2023-05-10T07:23:31;12.86;74.02
67868;SHT31;54672;46.096;14.470;2023-05-10T07:25:56;12.52;75.11
67868;SHT31;54672;46.096;14.470;2023-05-10T07:28:23;12.55;75.20
67868;SHT31;54672;46.096;14.470;2023-05-10T07:30:49;12.67;74.77
67868;SHT31;54672;46.096;14.470;2023-05-10T07:33:14;12.96;74.52
67868;SHT31;54672;46.096;14.470;2023-05-10T07:35:41;13.76;72.07
67868;SHT31;54672;46.096;14.470;2023-05-10T07:38:07;13.35;71.20
67868;SHT31;54672;46.096;14.470;2023-05-10T07:40:32;12.94;72.87
67868;SHT31;54672;46.096;14.470;2023-05-10T07:42:57;13.31;72.33
67868;SHT31;54672;46.096;14.470;2023-05-10T07:45:23;13.31;71.96
67868;SHT31;54672;46.096;14.470;2023-05-10T07:47:49;12.90;72.92
67868;SHT31;54672;46.096;14.470;2023-05-10T07:50:15;12.99;72.86
67868;SHT31;54672;46.096;14.470;2023-05-10T07:52:40;13.21;72.85
67868;SHT31;54672;46.096;14.470;2023-05-10T07:55:06;14.08;70.62
67868;SHT31;54672;46.096;14.470;2023-05-10T07:57:33;14.75;69.04
67868;SHT31;54672;46.096;14.470;2023-05-10T07:59:59;15.32;67.88
67868;SHT31;54672;46.096;14.470;2023-05-10T08:02:24;14.02;69.06
67868;SHT31;54672;46.096;14.470;2023-05-10T08:04:49;13.71;70.83
67868;SHT31;54672;46.096;14.470;2023-05-10T08:07:15;14.20;69.15
67868;SHT31;54672;46.096;14.470;2023-05-10T08:09:40;14.24;68.29
67868;SHT31;54672;46.096;14.470;2023-05-10T08:12:06;14.02;68.27
67868;SHT31;54672;46.096;14.470;2023-05-10T08:14:31;14.99;66.29
67868;SHT31;54672;46.096;14.470;2023-05-10T08:16:56;16.34;63.83
67868;SHT31;54672;46.096;14.470;2023-05-10T08:19:22;15.71;64.23
67868;SHT31;54672;46.096;14.470;2023-05-10T08:21:48;15.69;65.44
67868;SHT31;54672;46.096;14.470;2023-05-10T08:24:13;16.10;64.19
67868;SHT31;54672;46.096;14.470;2023-05-10T08:26:39;16.01;64.54
67868;SHT31;54672;46.096;14.470;2023-05-10T08:29:04;16.26;64.05
67868;SHT31;54672;46.096;14.470;2023-05-10T08:31:30;16.48;64.43
67868;SHT31;54672;46.096;14.470;2023-05-10T08:33:55;16.97;63.03
67868;SHT31;54672;46.096;14.470;2023-05-10T08:36:21;16.89;62.85
67868;SHT31;54672;46.096;14.470;2023-05-10T08:38:47;16.80;62.40
67868;SHT31;54672;46.096;14.470;2023-05-10T08:41:13;16.73;62.55
67868;SHT31;54672;46.096;14.470;2023-05-10T08:43:38;16.94;64.36
67868;SHT31;54672;46.096;14.470;2023-05-10T08:46:05;17.13;62.41
67868;SHT31;54672;46.096;14.470;2023-05-10T08:48:31;16.94;62.51
67868;SHT31;54672;46.096;14.470;2023-05-10T08:50:58;16.73;63.04
67868;SHT31;54672;46.096;14.470;2023-05-10T08:53:26;16.51;63.16
67868;SHT31;54672;46.096;14.470;2023-05-10T08:55:52;16.22;65.22
67868;SHT31;54672;46.096;14.470;2023-05-10T08:58:19;16.56;64.39
67868;SHT31;54672;46.096;14.470;2023-05-10T09:00:45;16.85;63.49
67868;SHT31;54672;46.096;14.470;2023-05-10T09:03:11;16.99;62.12
67868;SHT31;54672;46.096;14.470;2023-05-10T09:05:36;16.76;63.06
67868;SHT31;54672;46.096;14.470;2023-05-10T09:08:02;16.75;62.29
67868;SHT31;54672;46.096;14.470;2023-05-10T09:10:28;16.26;63.65
67868;SHT31;54672;46.096;14.470;2023-05-10T09:12:57;16.05;64.25
67868;SHT31;54672;46.096;14.470;2023-05-10T09:15:23;15.98;65.33
67868;SHT31;54672;46.096;14.470;2023-05-10T09:17:49;16.05;64.20
67868;SHT31;54672;46.096;14.470;2023-05-10T09:20:15;16.11;64.30
67868;SHT31;54672;46.096;14.470;2023-05-10T09:22:42;16.15;63.60
67868;SHT31;54672;46.096;14.470;2023-05-10T09:25:12;16.01;63.45
67868;SHT31;54672;46.096;14.470;2023-05-10T09:27:39;15.91;64.87
67868;SHT31;54672;46.096;14.470;2023-05-10T09:30:05;15.82;64.95
67868;SHT31;54672;46.096;14.470;2023-05-10T09:32:38;15.70;64.83
67868;SHT31;54672;46.096;14.470;2023-05-10T09:35:08;15.66;64.93
67868;SHT31;54672;46.096;14.470;2023-05-10T09:37:33;15.64;64.52
67868;SHT31;54672;46.096;14.470;2023-05-10T09:39:59;15.69;65.20
67868;SHT31;54672;46.096;14.470;2023-05-10T09:42:24;15.62;65.15
67868;SHT31;54672;46.096;14.470;2023-05-10T09:44:50;15.66;64.86
67868;SHT31;54672;46.096;14.470;2023-05-10T09:47:19;15.47;65.50
67868;SHT31;54672;46.096;14.470;2023-05-10T09:49:49;15.38;67.66
67868;SHT31;54672;46.096;14.470;2023-05-10T09:52:15;15.52;67.72
67868;SHT31;54672;46.096;14.470;2023-05-10T09:54:47;15.74;68.21
67868;SHT31;54672;46.096;14.470;2023-05-10T09:57:23;15.70;68.18
67868;SHT31;54672;46.096;14.470;2023-05-10T09:59:49;15.62;69.37
67868;SHT31;54672;46.096;14.470;2023-05-10T10:02:16;15.62;71.98
67868;SHT31;54672;46.096;14.470;2023-05-10T10:04:42;15.45;72.77
67868;SHT31;54672;46.096;14.470;2023-05-10T10:07:08;15.32;76.04
67868;SHT31;54672;46.096;14.470;2023-05-10T10:09:34;14.99;76.72
67868;SHT31;54672;46.096;14.470;2023-05-10T10:12:01;14.87;77.73
67868;SHT31;54672;46.096;14.470;2023-05-10T10:14:28;14.80;77.87
67868;SHT31;54672;46.096;14.470;2023-05-10T10:16:55;14.78;79.33
67868;SHT31;54672;46.096;14.470;2023-05-10T10:19:21;14.68;79.33
67868;SHT31;54672;46.096;14.470;2023-05-10T10:21:47;14.44;79.99
67868;SHT31;54672;46.096;14.470;2023-05-10T10:24:13;14.37;80.64
67868;SHT31;54672;46.096;14.470;2023-05-10T10:26:38;14.19;81.73
67868;SHT31;54672;46.096;14.470;2023-05-10T10:29:23;14.23;81.80
67868;SHT31;54672;46.096;14.470;2023-05-10T10:34:38;14.17;82.46
67868;SHT31;54672;46.096;14.470;2023-05-10T10:37:05;14.13;83.82
67868;SHT31;54672;46.096;14.470;2023-05-10T10:39:31;14.33;82.94
67868;SHT31;54672;46.096;14.470;2023-05-10T10:41:58;14.30;81.84
67868;SHT31;54672;46.096;14.470;2023-05-10T10:49:51;13.81;84.30
67868;SHT31;54672;46.096;14.470;2023-05-10T10:52:32;13.81;85.35
67868;SHT31;54672;46.096;14.470;2023-05-10T10:57:27;14.03;84.59
67868;SHT31;54672;46.096;14.470;2023-05-10T11:00:21;14.17;83.75
67868;SHT31;54672;46.096;14.470;2023-05-10T11:02:48;14.06;84.57
67868;SHT31;54672;46.096;14.470;2023-05-10T11:05:34;14.01;84.72
67868;SHT31;54672;46.096;14.470;2023-05-10T11:08:09;14.08;84.58
67868;SHT31;54672;46.096;14.470;2023-05-10T11:10:35;14.02;83.61
67868;SHT31;54672;46.096;14.470;2023-05-10T11:13:06;13.95;83.61
67868;SHT31;54672;46.096;14.470;2023-05-10T11:15:38;13.93;84.42
67868;SHT31;54672;46.096;14.470;2023-05-10T11:18:20;14.01;83.18
67868;SHT31;54672;46.096;14.470;2023-05-10T11:20:55;13.95;83.75
67868;SHT31;54672;46.096;14.470;2023-05-10T11:23:21;14.03;81.70
67868;SHT31;54672;46.096;14.470;2023-05-10T11:25:48;14.10;81.06
67868;SHT31;54672;46.096;14.470;2023-05-10T11:28:14;14.24;82.92
67868;SHT31;54672;46.096;14.470;2023-05-10T11:30:41;14.36;84.42
67868;SHT31;54672;46.096;14.470;2023-05-10T11:33:08;14.43;83.57
67868;SHT31;54672;46.096;14.470;2023-05-10T11:35:38;14.43;82.38
67868;SHT31;54672;46.096;14.470;2023-05-10T11:38:08;14.48;82.81
67868;SHT31;54672;46.096;14.470;2023-05-10T11:40:34;14.48;84.15
67868;SHT31;54672;46.096;14.470;2023-05-10T11:43:00;14.33;83.51
67868;SHT31;54672;46.096;14.470;2023-05-10T11:45:26;14.34;83.64
67868;SHT31;54672;46.096;14.470;2023-05-10T11:47:52;14.37;83.90
67868;SHT31;54672;46.096;14.470;2023-05-10T11:50:18;14.37;84.33
67868;SHT31;54672;46.096;14.470;2023-05-10T11:52:43;14.36;84.83
67868;SHT31;54672;46.096;14.470;2023-05-10T11:55:09;14.36;85.02
67868;SHT31;54672;46.096;14.470;2023-05-10T11:57:35;14.36;85.40
67868;SHT31;54672;46.096;14.470;2023-05-10T12:00:00;14.34;85.51
67868;SHT31;54672;46.096;14.470;2023-05-10T12:02:29;14.32;86.09
67868;SHT31;54672;46.096;14.470;2023-05-10T12:04:55;14.13;86.85
67868;SHT31;54672;46.096;14.470;2023-05-10T12:07:21;14.01;86.09
67868;SHT31;54672;46.096;14.470;2023-05-10T12:12:42;13.72;84.14
67868;SHT31;54672;46.096;14.470;2023-05-10T12:15:21;13.61;81.97
67868;SHT31;54672;46.096;14.470;2023-05-10T12:17:47;13.53;85.17
67868;SHT31;54672;46.096;14.470;2023-05-10T12:20:23;13.55;87.03
67868;SHT31;54672;46.096;14.470;2023-05-10T12:22:56;13.57;88.94
67868;SHT31;54672;46.096;14.470;2023-05-10T12:25:23;13.61;89.26
67868;SHT31;54672;46.096;14.470;2023-05-10T12:27:53;13.57;88.62
67868;SHT31;54672;46.096;14.470;2023-05-10T12:30:21;13.57;87.97
67868;SHT31;54672;46.096;14.470;2023-05-10T12:32:47;13.06;87.28
67868;SHT31;54672;46.096;14.470;2023-05-10T12:35:12;13.24;88.56
67868;SHT31;54672;46.096;14.470;2023-05-10T12:37:38;13.30;88.48
67868;SHT31;54672;46.096;14.470;2023-05-10T12:40:09;13.27;88.99
67868;SHT31;54672;46.096;14.470;2023-05-10T12:42:36;13.25;89.92
67868;SHT31;54672;46.096;14.470;2023-05-10T12:45:02;13.28;91.24
67868;SHT31;54672;46.096;14.470;2023-05-10T12:47:28;13.34;91.58
67868;SHT31;54672;46.096;14.470;2023-05-10T12:49:54;13.37;91.67
67868;SHT31;54672;46.096;14.470;2023-05-10T12:52:19;13.35;91.80
67868;SHT31;54672;46.096;14.470;2023-05-10T12:54:45;13.37;91.64
67868;SHT31;54672;46.096;14.470;2023-05-10T12:57:10;13.38;91.50
67868;SHT31;54672;46.096;14.470;2023-05-10T12:59:36;13.41;91.35
67868;SHT31;54672;46.096;14.470;2023-05-10T13:02:01;13.40;91.38
67868;SHT31;54672;46.096;14.470;2023-05-10T13:04:26;13.40;91.11
67868;SHT31;54672;46.096;14.470;2023-05-10T13:06:52;13.38;91.20
67868;SHT31;54672;46.096;14.470;2023-05-10T13:09:17;13.31;90.12
67868;SHT31;54672;46.096;14.470;2023-05-10T13:11:42;13.31;89.54
67868;SHT31;54672;46.096;14.470;2023-05-10T13:14:08;13.34;90.22
67868;SHT31;54672;46.096;14.470;2023-05-10T13:16:33;13.30;89.49
67868;SHT31;54672;46.096;14.470;2023-05-10T13:18:59;13.37;89.51
67868;SHT31;54672;46.096;14.470;2023-05-10T13:21:24;13.37;90.74
67868;SHT31;54672;46.096;14.470;2023-05-10T13:23:50;13.47;91.43
67868;SHT31;54672;46.096;14.470;2023-05-10T13:26:16;13.48;90.79
67868;SHT31;54672;46.096;14.470;2023-05-10T13:28:41;13.48;89.95
67868;SHT31;54672;46.096;14.470;2023-05-10T13:31:07;13.51;89.47
67868;SHT31;54672;46.096;14.470;2023-05-10T13:33:32;13.55;89.73
67868;SHT31;54672;46.096;14.470;2023-05-10T13:35:58;13.57;88.85
67868;SHT31;54672;46.096;14.470;2023-05-10T13:38:23;13.18;88.86
67868;SHT31;54672;46.096;14.470;2023-05-10T13:40:48;13.41;89.68
67868;SHT31;54672;46.096;14.470;2023-05-10T13:43:18;13.55;90.36
67868;SHT31;54672;46.096;14.470;2023-05-10T13:45:43;13.55;89.61
67868;SHT31;54672;46.096;14.470;2023-05-10T13:48:08;13.64;89.86
67868;SHT31;54672;46.096;14.470;2023-05-10T13:50:34;13.71;89.74
67868;SHT31;54672;46.096;14.470;2023-05-10T13:52:59;13.75;89.30
67868;SHT31;54672;46.096;14.470;2023-05-10T13:55:25;13.61;86.34
67868;SHT31;54672;46.096;14.470;2023-05-10T13:57:51;13.66;87.42
67868;SHT31;54672;46.096;14.470;2023-05-10T14:00:17;13.76;89.06
67868;SHT31;54672;46.096;14.470;2023-05-10T14:02:42;13.81;90.16
67868;SHT31;54672;46.096;14.470;2023-05-10T14:05:08;13.87;90.35
67868;SHT31;54672;46.096;14.470;2023-05-10T14:07:33;13.87;90.61
67868;SHT31;54672;46.096;14.470;2023-05-10T14:09:58;13.86;90.82
67868;SHT31;54672;46.096;14.470;2023-05-10T14:12:24;13.86;91.03
67868;SHT31;54672;46.096;14.470;2023-05-10T14:14:50;13.78;90.09
67868;SHT31;54672;46.096;14.470;2023-05-10T14:17:15;13.64;90.36
67868;SHT31;54672;46.096;14.470;2023-05-10T14:19:41;13.61;91.17
67868;SHT31;54672;46.096;14.470;2023-05-10T14:22:06;13.35;90.15
67868;SHT31;54672;46.096;14.470;2023-05-10T14:24:31;13.31;89.77
67868;SHT31;54672;46.096;14.470;2023-05-10T14:26:57;12.99;91.54
67868;SHT31;54672;46.096;14.470;2023-05-10T14:29:22;12.76;91.20
67868;SHT31;54672;46.096;14.470;2023-05-10T14:31:48;12.52;93.93
67868;SHT31;54672;46.096;14.470;2023-05-10T14:34:13;12.55;94.58
67868;SHT31;54672;46.096;14.470;2023-05-10T14:36:39;12.48;94.48
67868;SHT31;54672;46.096;14.470;2023-05-10T14:39:05;12.48;94.63
67868;SHT31;54672;46.096;14.470;2023-05-10T14:41:31;12.44;94.12
67868;SHT31;54672;46.096;14.470;2023-05-10T14:43:57;12.32;93.02
67868;SHT31;54672;46.096;14.470;2023-05-10T14:46:22;12.34;93.72
67868;SHT31;54672;46.096;14.470;2023-05-10T14:48:48;12.31;92.73
67868;SHT31;54672;46.096;14.470;2023-05-10T14:51:13;12.44;93.87
67868;SHT31;54672;46.096;14.470;2023-05-10T14:53:39;12.36;92.87
67868;SHT31;54672;46.096;14.470;2023-05-10T14:56:04;12.50;93.81
67868;SHT31;54672;46.096;14.470;2023-05-10T14:58:30;12.63;94.13
67868;SHT31;54672;46.096;14.470;2023-05-10T15:00:57;12.62;94.28
67868;SHT31;54672;46.096;14.470;2023-05-10T15:03:22;12.66;94.42
67868;SHT31;54672;46.096;14.470;2023-05-10T15:05:48;12.76;94.23
67868;SHT31;54672;46.096;14.470;2023-05-10T15:08:13;12.84;94.19
67868;SHT31;54672;46.096;14.470;2023-05-10T15:10:39;12.97;94.08
67868;SHT31;54672;46.096;14.470;2023-05-10T15:13:05;13.02;94.17
67868;SHT31;54672;46.096;14.470;2023-05-10T15:15:30;13.10;93.79
67868;SHT31;54672;46.096;14.470;2023-05-10T15:17:55;13.10;93.71
67868;SHT31;54672;46.096;14.470;2023-05-10T15:20:21;13.11;93.70
67868;SHT31;54672;46.096;14.470;2023-05-10T15:22:46;13.14;93.93
67868;SHT31;54672;46.096;14.470;2023-05-10T15:25:12;13.15;93.98
67868;SHT31;54672;46.096;14.470;2023-05-10T15:27:38;13.20;93.95
67868;SHT31;54672;46.096;14.470;2023-05-10T15:30:04;13.17;93.98
67868;SHT31;54672;46.096;14.470;2023-05-10T15:32:29;13.17;93.64
67868;SHT31;54672;46.096;14.470;2023-05-10T15:34:55;13.15;93.77
67868;SHT31;54672;46.096;14.470;2023-05-10T15:37:21;13.14;93.74
67868;SHT31;54672;46.096;14.470;2023-05-10T15:39:48;13.07;93.51
67868;SHT31;54672;46.096;14.470;2023-05-10T15:42:13;13.06;93.81
67868;SHT31;54672;46.096;14.470;2023-05-10T15:44:39;13.02;93.89
67868;SHT31;54672;46.096;14.470;2023-05-10T15:47:05;13.04;93.95
67868;SHT31;54672;46.096;14.470;2023-05-10T15:49:31;13.04;93.89